sensor_id;sensor_type;location;lat;lon;timestamp;P1;durP1;ratioP1;P2;durP2;ratioP2
25905;SDS011;13713;52.552;13.204;2023-02-28T00:01:20;66.32;;;35.85;;
25905;SDS011;13713;52.552;13.204;2023-02-28T00:03:46;66.63;;;36.40;;
25905;SDS011;13713;52.552;13.204;2023-02-28T00:06:12;72.63;;;38.45;;
25905;SDS011;13713;52.552;13.204;2023-02-28T00:08:38;65.45;;;35.85;;
25905;SDS011;13713;52.552;13.204;2023-02-28T00:11:05;64.00;;;34.53;;
25905;SDS011;13713;52.552;13.204;2023-02-28T00:13:34;65.85;;;36.47;;
25905;SDS011;13713;52.552;13.204;2023-02-28T00:16:03;68.30;;;37.55;;
25905;SDS011;13713;52.552;13.204;2023-02-28T00:18:31;68.28;;;34.53;;
25905;SDS011;13713;52.552;13.204;2023-02-28T00:20:57;63.85;;;36.05;;
25905;SDS011;13713;52.552;13.204;2023-02-28T00:23:23;65.63;;;34.95;;
25905;SDS011;13713;52.552;13.204;2023-02-28T00:25:49;62.05;;;34.92;;
25905;SDS011;13713;52.552;13.204;2023-02-28T00:28:16;66.22;;;35.17;;
25905;SDS011;13713;52.552;13.204;2023-02-28T00:30:41;61.60;;;35.25;;
25905;SDS011;13713;52.552;13.204;2023-02-28T00:33:07;60.47;;;33.95;;
25905;SDS011;13713;52.552;13.204;2023-02-28T00:35:33;65.22;;;34.08;;
25905;SDS011;13713;52.552;13.204;2023-02-28T00:37:58;66.13;;;35.22;;
25905;SDS011;13713;52.552;13.204;2023-02-28T00:40:26;63.75;;;34.47;;
25905;SDS011;13713;52.552;13.204;2023-02-28T00:42:52;64.18;;;35.15;;
25905;SDS011;13713;52.552;13.204;2023-02-28T00:45:17;58.08;;;33.20;;
25905;SDS011;13713;52.552;13.204;2023-02-28T00:47:44;58.65;;;33.60;;
25905;SDS011;13713;52.552;13.204;2023-02-28T00:50:11;57.60;;;32.67;;
25905;SDS011;13713;52.552;13.204;2023-02-28T00:52:37;55.85;;;31.67;;
25905;SDS011;13713;52.552;13.204;2023-02-28T00:55:03;55.58;;;30.90;;
25905;SDS011;13713;52.552;13.204;2023-02-28T00:57:29;60.92;;;32.78;;
25905;SDS011;13713;52.552;13.204;2023-02-28T00:59:55;62.63;;;32.97;;
25905;SDS011;13713;52.552;13.204;2023-02-28T01:02:21;55.58;;;30.75;;
25905;SDS011;13713;52.552;13.204;2023-02-28T01:04:47;57.95;;;30.48;;
25905;SDS011;13713;52.552;13.204;2023-02-28T01:07:13;57.70;;;30.65;;
25905;SDS011;13713;52.552;13.204;2023-02-28T01:09:40;58.65;;;32.05;;
25905;SDS011;13713;52.552;13.204;2023-02-28T01:12:06;59.75;;;31.58;;
25905;SDS011;13713;52.552;13.204;2023-02-28T01:14:33;51.80;;;29.85;;
25905;SDS011;13713;52.552;13.204;2023-02-28T01:16:59;56.70;;;30.30;;
25905;SDS011;13713;52.552;13.204;2023-02-28T01:19:25;54.38;;;31.10;;
25905;SDS011;13713;52.552;13.204;2023-02-28T01:21:51;54.95;;;30.38;;
25905;SDS011;13713;52.552;13.204;2023-02-28T01:24:17;55.40;;;29.80;;
25905;SDS011;13713;52.552;13.204;2023-02-28T01:26:43;51.92;;;29.17;;
25905;SDS011;13713;52.552;13.204;2023-02-28T01:29:09;56.40;;;30.00;;
25905;SDS011;13713;52.552;13.204;2023-02-28T01:31:35;50.55;;;28.02;;
25905;SDS011;13713;52.552;13.204;2023-02-28T01:34:01;49.83;;;28.80;;
25905;SDS011;13713;52.552;13.204;2023-02-28T01:36:29;50.67;;;29.20;;
25905;SDS011;13713;52.552;13.204;2023-02-28T01:38:55;49.22;;;27.55;;
25905;SDS011;13713;52.552;13.204;2023-02-28T01:41:22;50.33;;;28.38;;
25905;SDS011;13713;52.552;13.204;2023-02-28T01:43:57;48.42;;;27.92;;
25905;SDS011;13713;52.552;13.204;2023-02-28T01:46:32;50.08;;;28.13;;
25905;SDS011;13713;52.552;13.204;2023-02-28T01:49:07;48.88;;;27.85;;
25905;SDS011;13713;52.552;13.204;2023-02-28T01:51:39;49.58;;;27.52;;
25905;SDS011;13713;52.552;13.204;2023-02-28T01:54:11;49.50;;;27.13;;
25905;SDS011;13713;52.552;13.204;2023-02-28T01:56:43;48.78;;;27.67;;
25905;SDS011;13713;52.552;13.204;2023-02-28T01:59:14;50.15;;;28.30;;
25905;SDS011;13713;52.552;13.204;2023-02-28T02:01:47;51.13;;;28.42;;
25905;SDS011;13713;52.552;13.204;2023-02-28T02:04:14;47.78;;;27.45;;
25905;SDS011;13713;52.552;13.204;2023-02-28T02:06:42;46.95;;;26.13;;
25905;SDS011;13713;52.552;13.204;2023-02-28T02:09:11;46.25;;;26.73;;
25905;SDS011;13713;52.552;13.204;2023-02-28T02:11:37;47.30;;;26.38;;
25905;SDS011;13713;52.552;13.204;2023-02-28T02:25:28;45.50;;;25.65;;
25905;SDS011;13713;52.552;13.204;2023-02-28T02:28:05;51.03;;;26.38;;
25905;SDS011;13713;52.552;13.204;2023-02-28T02:36:24;50.47;;;26.73;;
25905;SDS011;13713;52.552;13.204;2023-02-28T02:38:57;43.75;;;23.58;;
25905;SDS011;13713;52.552;13.204;2023-02-28T02:41:39;41.72;;;23.80;;
25905;SDS011;13713;52.552;13.204;2023-02-28T02:47:01;40.42;;;24.13;;
25905;SDS011;13713;52.552;13.204;2023-02-28T02:49:33;42.33;;;23.25;;
25905;SDS011;13713;52.552;13.204;2023-02-28T02:52:04;44.80;;;25.50;;
25905;SDS011;13713;52.552;13.204;2023-02-28T02:54:37;42.63;;;24.48;;
25905;SDS011;13713;52.552;13.204;2023-02-28T02:57:16;43.10;;;24.05;;
25905;SDS011;13713;52.552;13.204;2023-02-28T02:59:48;45.55;;;24.48;;
25905;SDS011;13713;52.552;13.204;2023-02-28T03:02:18;43.75;;;23.58;;
25905;SDS011;13713;52.552;13.204;2023-02-28T03:04:57;39.70;;;23.67;;
25905;SDS011;13713;52.552;13.204;2023-02-28T03:07:27;39.53;;;22.08;;
25905;SDS011;13713;52.552;13.204;2023-02-28T03:09:53;35.88;;;22.30;;
25905;SDS011;13713;52.552;13.204;2023-02-28T03:12:21;40.92;;;22.35;;
25905;SDS011;13713;52.552;13.204;2023-02-28T03:15:03;38.33;;;22.50;;
25905;SDS011;13713;52.552;13.204;2023-02-28T03:23:31;39.88;;;23.58;;
25905;SDS011;13713;52.552;13.204;2023-02-28T03:25:54;39.45;;;22.73;;
25905;SDS011;13713;52.552;13.204;2023-02-28T03:28:31;39.53;;;22.35;;
25905;SDS011;13713;52.552;13.204;2023-02-28T03:34:46;41.00;;;22.05;;
25905;SDS011;13713;52.552;13.204;2023-02-28T03:37:19;38.85;;;21.38;;
25905;SDS011;13713;52.552;13.204;2023-02-28T03:39:48;40.42;;;22.23;;
25905;SDS011;13713;52.552;13.204;2023-02-28T03:42:29;38.45;;;22.77;;
25905;SDS011;13713;52.552;13.204;2023-02-28T03:47:51;39.05;;;21.05;;
25905;SDS011;13713;52.552;13.204;2023-02-28T03:50:24;38.30;;;21.17;;
25905;SDS011;13713;52.552;13.204;2023-02-28T03:52:58;37.20;;;21.30;;
25905;SDS011;13713;52.552;13.204;2023-02-28T03:55:41;36.45;;;20.17;;
25905;SDS011;13713;52.552;13.204;2023-02-28T04:00:52;38.72;;;21.45;;
25905;SDS011;13713;52.552;13.204;2023-02-28T04:03:24;37.15;;;21.45;;
25905;SDS011;13713;52.552;13.204;2023-02-28T04:05:54;35.97;;;21.00;;
25905;SDS011;13713;52.552;13.204;2023-02-28T04:08:21;35.47;;;20.30;;
25905;SDS011;13713;52.552;13.204;2023-02-28T04:10:53;35.97;;;19.98;;
25905;SDS011;13713;52.552;13.204;2023-02-28T04:13:27;33.85;;;19.38;;
25905;SDS011;13713;52.552;13.204;2023-02-28T04:15:52;33.50;;;20.23;;
25905;SDS011;13713;52.552;13.204;2023-02-28T04:18:18;36.22;;;20.70;;
25905;SDS011;13713;52.552;13.204;2023-02-28T04:20:44;30.20;;;18.98;;
25905;SDS011;13713;52.552;13.204;2023-02-28T04:23:09;33.13;;;19.80;;
25905;SDS011;13713;52.552;13.204;2023-02-28T04:25:35;35.42;;;21.23;;
25905;SDS011;13713;52.552;13.204;2023-02-28T04:28:01;32.60;;;20.85;;
25905;SDS011;13713;52.552;13.204;2023-02-28T04:30:27;32.38;;;21.75;;
25905;SDS011;13713;52.552;13.204;2023-02-28T04:32:54;32.75;;;20.45;;
25905;SDS011;13713;52.552;13.204;2023-02-28T04:35:20;33.55;;;21.33;;
25905;SDS011;13713;52.552;13.204;2023-02-28T04:37:46;33.80;;;20.88;;
25905;SDS011;13713;52.552;13.204;2023-02-28T04:40:11;32.70;;;20.88;;
25905;SDS011;13713;52.552;13.204;2023-02-28T04:42:37;32.08;;;20.65;;
25905;SDS011;13713;52.552;13.204;2023-02-28T04:45:03;31.92;;;20.15;;
25905;SDS011;13713;52.552;13.204;2023-02-28T04:47:29;32.25;;;20.20;;
25905;SDS011;13713;52.552;13.204;2023-02-28T04:49:55;31.50;;;19.50;;
25905;SDS011;13713;52.552;13.204;2023-02-28T04:52:21;31.02;;;18.95;;
25905;SDS011;13713;52.552;13.204;2023-02-28T04:54:47;28.50;;;18.98;;
25905;SDS011;13713;52.552;13.204;2023-02-28T04:57:13;31.83;;;19.08;;
25905;SDS011;13713;52.552;13.204;2023-02-28T04:59:39;30.92;;;19.77;;
25905;SDS011;13713;52.552;13.204;2023-02-28T05:02:05;34.08;;;21.27;;
25905;SDS011;13713;52.552;13.204;2023-02-28T05:04:32;33.78;;;21.35;;
25905;SDS011;13713;52.552;13.204;2023-02-28T05:06:59;37.42;;;23.48;;
25905;SDS011;13713;52.552;13.204;2023-02-28T05:09:26;41.58;;;26.77;;
25905;SDS011;13713;52.552;13.204;2023-02-28T05:11:53;36.75;;;24.38;;
25905;SDS011;13713;52.552;13.204;2023-02-28T05:14:19;40.63;;;25.60;;
25905;SDS011;13713;52.552;13.204;2023-02-28T05:16:45;42.05;;;27.58;;
25905;SDS011;13713;52.552;13.204;2023-02-28T05:19:11;37.80;;;25.27;;
25905;SDS011;13713;52.552;13.204;2023-02-28T05:21:38;37.38;;;24.02;;
25905;SDS011;13713;52.552;13.204;2023-02-28T05:24:13;41.75;;;26.90;;
25905;SDS011;13713;52.552;13.204;2023-02-28T05:26:42;43.03;;;27.63;;
25905;SDS011;13713;52.552;13.204;2023-02-28T05:29:08;41.35;;;27.15;;
25905;SDS011;13713;52.552;13.204;2023-02-28T05:31:34;60.17;;;36.97;;
25905;SDS011;13713;52.552;13.204;2023-02-28T05:34:00;93.15;;;59.50;;
25905;SDS011;13713;52.552;13.204;2023-02-28T05:36:26;83.93;;;52.42;;
25905;SDS011;13713;52.552;13.204;2023-02-28T05:38:52;78.82;;;47.28;;
25905;SDS011;13713;52.552;13.204;2023-02-28T05:41:18;71.90;;;46.08;;
25905;SDS011;13713;52.552;13.204;2023-02-28T05:43:45;57.33;;;37.03;;
25905;SDS011;13713;52.552;13.204;2023-02-28T05:46:11;62.00;;;37.25;;
25905;SDS011;13713;52.552;13.204;2023-02-28T05:48:38;56.38;;;34.80;;
25905;SDS011;13713;52.552;13.204;2023-02-28T05:51:05;57.20;;;34.67;;
25905;SDS011;13713;52.552;13.204;2023-02-28T05:53:32;56.45;;;33.65;;
25905;SDS011;13713;52.552;13.204;2023-02-28T05:55:58;53.88;;;34.13;;
25905;SDS011;13713;52.552;13.204;2023-02-28T05:58:24;56.97;;;33.17;;
25905;SDS011;13713;52.552;13.204;2023-02-28T06:00:56;51.08;;;33.13;;
25905;SDS011;13713;52.552;13.204;2023-02-28T06:03:25;51.58;;;32.42;;
25905;SDS011;13713;52.552;13.204;2023-02-28T06:05:52;50.80;;;32.60;;
25905;SDS011;13713;52.552;13.204;2023-02-28T06:08:17;53.72;;;32.35;;
25905;SDS011;13713;52.552;13.204;2023-02-28T06:10:43;53.50;;;32.38;;
25905;SDS011;13713;52.552;13.204;2023-02-28T06:13:10;47.42;;;31.25;;
25905;SDS011;13713;52.552;13.204;2023-02-28T06:15:37;49.13;;;30.75;;
25905;SDS011;13713;52.552;13.204;2023-02-28T06:18:03;49.70;;;31.25;;
25905;SDS011;13713;52.552;13.204;2023-02-28T06:20:29;45.15;;;28.83;;
25905;SDS011;13713;52.552;13.204;2023-02-28T06:22:56;47.88;;;30.50;;
25905;SDS011;13713;52.552;13.204;2023-02-28T06:25:23;46.85;;;29.75;;
25905;SDS011;13713;52.552;13.204;2023-02-28T06:27:50;46.60;;;28.50;;
25905;SDS011;13713;52.552;13.204;2023-02-28T06:30:16;46.30;;;29.40;;
25905;SDS011;13713;52.552;13.204;2023-02-28T06:32:42;48.35;;;29.48;;
25905;SDS011;13713;52.552;13.204;2023-02-28T06:35:08;45.42;;;28.10;;
25905;SDS011;13713;52.552;13.204;2023-02-28T06:37:33;49.10;;;29.13;;
25905;SDS011;13713;52.552;13.204;2023-02-28T06:39:59;45.80;;;29.50;;
25905;SDS011;13713;52.552;13.204;2023-02-28T06:42:25;44.75;;;27.23;;
25905;SDS011;13713;52.552;13.204;2023-02-28T06:44:54;43.28;;;27.13;;
25905;SDS011;13713;52.552;13.204;2023-02-28T06:47:20;41.88;;;26.85;;
25905;SDS011;13713;52.552;13.204;2023-02-28T06:49:46;40.22;;;25.73;;
25905;SDS011;13713;52.552;13.204;2023-02-28T06:52:12;38.20;;;25.40;;
25905;SDS011;13713;52.552;13.204;2023-02-28T06:54:39;38.35;;;24.73;;
25905;SDS011;13713;52.552;13.204;2023-02-28T06:57:04;41.40;;;26.13;;
25905;SDS011;13713;52.552;13.204;2023-02-28T06:59:30;41.40;;;25.42;;
25905;SDS011;13713;52.552;13.204;2023-02-28T07:01:56;39.08;;;26.33;;
25905;SDS011;13713;52.552;13.204;2023-02-28T07:04:21;38.75;;;23.85;;
25905;SDS011;13713;52.552;13.204;2023-02-28T07:06:47;36.30;;;23.90;;
25905;SDS011;13713;52.552;13.204;2023-02-28T07:09:13;36.40;;;24.35;;
25905;SDS011;13713;52.552;13.204;2023-02-28T07:11:39;35.53;;;23.52;;
25905;SDS011;13713;52.552;13.204;2023-02-28T07:14:06;48.85;;;28.88;;
25905;SDS011;13713;52.552;13.204;2023-02-28T07:16:32;63.90;;;41.80;;
25905;SDS011;13713;52.552;13.204;2023-02-28T07:18:58;70.68;;;40.78;;
25905;SDS011;13713;52.552;13.204;2023-02-28T07:21:24;119.07;;;53.92;;
25905;SDS011;13713;52.552;13.204;2023-02-28T07:23:50;153.30;;;66.15;;
25905;SDS011;13713;52.552;13.204;2023-02-28T07:26:17;194.23;;;75.47;;
25905;SDS011;13713;52.552;13.204;2023-02-28T07:28:44;157.77;;;66.22;;
25905;SDS011;13713;52.552;13.204;2023-02-28T07:31:12;85.22;;;43.75;;
25905;SDS011;13713;52.552;13.204;2023-02-28T07:33:42;90.15;;;43.08;;
25905;SDS011;13713;52.552;13.204;2023-02-28T07:36:12;103.38;;;48.15;;
25905;SDS011;13713;52.552;13.204;2023-02-28T07:38:41;135.65;;;65.28;;
25905;SDS011;13713;52.552;13.204;2023-02-28T07:41:08;92.53;;;48.08;;
25905;SDS011;13713;52.552;13.204;2023-02-28T07:43:35;104.10;;;50.78;;
25905;SDS011;13713;52.552;13.204;2023-02-28T07:46:11;114.82;;;53.60;;
25905;SDS011;13713;52.552;13.204;2023-02-28T07:48:40;129.07;;;60.60;;
25905;SDS011;13713;52.552;13.204;2023-02-28T07:51:06;121.22;;;57.85;;
25905;SDS011;13713;52.552;13.204;2023-02-28T07:53:32;123.03;;;58.78;;
25905;SDS011;13713;52.552;13.204;2023-02-28T07:55:58;124.47;;;62.30;;
25905;SDS011;13713;52.552;13.204;2023-02-28T07:58:26;130.93;;;59.55;;
25905;SDS011;13713;52.552;13.204;2023-02-28T08:00:52;128.45;;;60.75;;
25905;SDS011;13713;52.552;13.204;2023-02-28T08:03:19;116.18;;;57.17;;
25905;SDS011;13713;52.552;13.204;2023-02-28T08:05:45;124.40;;;57.83;;
25905;SDS011;13713;52.552;13.204;2023-02-28T08:08:11;130.68;;;63.15;;
25905;SDS011;13713;52.552;13.204;2023-02-28T08:10:37;126.35;;;60.55;;
25905;SDS011;13713;52.552;13.204;2023-02-28T08:13:03;141.95;;;64.47;;
25905;SDS011;13713;52.552;13.204;2023-02-28T08:15:28;386.58;;;155.20;;
25905;SDS011;13713;52.552;13.204;2023-02-28T08:17:54;295.80;;;123.10;;
25905;SDS011;13713;52.552;13.204;2023-02-28T08:20:21;198.52;;;91.72;;
25905;SDS011;13713;52.552;13.204;2023-02-28T08:22:48;179.60;;;81.90;;
25905;SDS011;13713;52.552;13.204;2023-02-28T08:25:14;170.98;;;76.93;;
25905;SDS011;13713;52.552;13.204;2023-02-28T08:27:40;161.23;;;78.75;;
25905;SDS011;13713;52.552;13.204;2023-02-28T08:30:06;167.50;;;77.95;;
25905;SDS011;13713;52.552;13.204;2023-02-28T08:32:32;178.63;;;83.20;;
25905;SDS011;13713;52.552;13.204;2023-02-28T08:34:58;173.75;;;80.55;;
25905;SDS011;13713;52.552;13.204;2023-02-28T08:37:24;190.55;;;87.15;;
25905;SDS011;13713;52.552;13.204;2023-02-28T08:39:51;167.15;;;81.35;;
25905;SDS011;13713;52.552;13.204;2023-02-28T08:42:16;161.45;;;79.82;;
25905;SDS011;13713;52.552;13.204;2023-02-28T08:44:42;177.95;;;80.13;;
25905;SDS011;13713;52.552;13.204;2023-02-28T08:47:08;163.52;;;79.50;;
25905;SDS011;13713;52.552;13.204;2023-02-28T08:49:33;141.75;;;69.07;;
25905;SDS011;13713;52.552;13.204;2023-02-28T08:51:59;173.00;;;78.65;;
25905;SDS011;13713;52.552;13.204;2023-02-28T08:54:25;136.35;;;66.60;;
25905;SDS011;13713;52.552;13.204;2023-02-28T08:56:50;142.90;;;69.97;;
25905;SDS011;13713;52.552;13.204;2023-02-28T08:59:16;150.23;;;74.53;;
25905;SDS011;13713;52.552;13.204;2023-02-28T09:01:42;146.50;;;79.32;;
25905;SDS011;13713;52.552;13.204;2023-02-28T09:04:08;157.75;;;86.05;;
25905;SDS011;13713;52.552;13.204;2023-02-28T09:06:35;164.23;;;85.97;;
25905;SDS011;13713;52.552;13.204;2023-02-28T09:09:01;184.73;;;92.72;;
25905;SDS011;13713;52.552;13.204;2023-02-28T09:11:29;160.98;;;83.53;;
25905;SDS011;13713;52.552;13.204;2023-02-28T09:13:55;156.68;;;82.60;;
25905;SDS011;13713;52.552;13.204;2023-02-28T09:16:21;159.02;;;84.60;;
25905;SDS011;13713;52.552;13.204;2023-02-28T09:18:47;133.75;;;75.43;;
25905;SDS011;13713;52.552;13.204;2023-02-28T09:21:14;145.93;;;76.78;;
25905;SDS011;13713;52.552;13.204;2023-02-28T09:23:44;146.60;;;77.47;;
25905;SDS011;13713;52.552;13.204;2023-02-28T09:26:19;137.00;;;69.75;;
25905;SDS011;13713;52.552;13.204;2023-02-28T09:28:50;150.02;;;78.70;;
25905;SDS011;13713;52.552;13.204;2023-02-28T09:31:17;146.57;;;76.03;;
25905;SDS011;13713;52.552;13.204;2023-02-28T09:33:48;114.47;;;61.45;;
25905;SDS011;13713;52.552;13.204;2023-02-28T09:36:15;144.25;;;72.40;;
25905;SDS011;13713;52.552;13.204;2023-02-28T09:38:41;127.18;;;65.05;;
25905;SDS011;13713;52.552;13.204;2023-02-28T09:41:17;126.45;;;63.20;;
25905;SDS011;13713;52.552;13.204;2023-02-28T09:43:50;134.95;;;69.35;;
25905;SDS011;13713;52.552;13.204;2023-02-28T09:46:28;138.15;;;70.13;;
25905;SDS011;13713;52.552;13.204;2023-02-28T09:48:58;145.90;;;77.68;;
25905;SDS011;13713;52.552;13.204;2023-02-28T09:54:16;132.88;;;71.65;;
25905;SDS011;13713;52.552;13.204;2023-02-28T09:56:53;135.05;;;68.32;;
25905;SDS011;13713;52.552;13.204;2023-02-28T10:02:27;122.72;;;66.90;;
25905;SDS011;13713;52.552;13.204;2023-02-28T10:05:13;123.60;;;68.50;;
25905;SDS011;13713;52.552;13.204;2023-02-28T10:10:35;107.00;;;59.13;;
25905;SDS011;13713;52.552;13.204;2023-02-28T10:15:42;110.10;;;64.20;;
25905;SDS011;13713;52.552;13.204;2023-02-28T10:18:11;103.32;;;59.65;;
25905;SDS011;13713;52.552;13.204;2023-02-28T10:20:40;102.88;;;59.55;;
25905;SDS011;13713;52.552;13.204;2023-02-28T10:25:40;100.13;;;58.30;;
25905;SDS011;13713;52.552;13.204;2023-02-28T10:28:14;102.10;;;61.13;;
25905;SDS011;13713;52.552;13.204;2023-02-28T10:30:49;98.57;;;57.92;;
25905;SDS011;13713;52.552;13.204;2023-02-28T10:33:18;90.40;;;55.88;;
25905;SDS011;13713;52.552;13.204;2023-02-28T10:35:47;110.35;;;61.85;;
25905;SDS011;13713;52.552;13.204;2023-02-28T10:38:19;91.63;;;55.13;;
25905;SDS011;13713;52.552;13.204;2023-02-28T10:40:47;89.80;;;52.88;;
25905;SDS011;13713;52.552;13.204;2023-02-28T10:45:39;89.93;;;54.53;;
25905;SDS011;13713;52.552;13.204;2023-02-28T10:55:57;101.60;;;60.03;;
25905;SDS011;13713;52.552;13.204;2023-02-28T10:58:23;89.70;;;53.05;;
25905;SDS011;13713;52.552;13.204;2023-02-28T11:00:51;103.60;;;63.83;;
25905;SDS011;13713;52.552;13.204;2023-02-28T11:03:25;113.00;;;70.13;;
25905;SDS011;13713;52.552;13.204;2023-02-28T11:05:57;123.25;;;76.95;;
25905;SDS011;13713;52.552;13.204;2023-02-28T11:08:23;126.43;;;78.65;;
25905;SDS011;13713;52.552;13.204;2023-02-28T11:10:56;121.05;;;76.13;;
25905;SDS011;13713;52.552;13.204;2023-02-28T11:13:27;118.38;;;72.65;;
25905;SDS011;13713;52.552;13.204;2023-02-28T11:15:57;113.88;;;67.90;;
25905;SDS011;13713;52.552;13.204;2023-02-28T11:18:46;106.72;;;67.10;;
25905;SDS011;13713;52.552;13.204;2023-02-28T11:21:33;98.60;;;60.10;;
25905;SDS011;13713;52.552;13.204;2023-02-28T11:24:24;95.10;;;57.88;;
25905;SDS011;13713;52.552;13.204;2023-02-28T11:26:58;90.43;;;55.88;;
25905;SDS011;13713;52.552;13.204;2023-02-28T11:29:26;86.57;;;54.50;;
25905;SDS011;13713;52.552;13.204;2023-02-28T11:32:12;86.18;;;55.15;;
25905;SDS011;13713;52.552;13.204;2023-02-28T11:34:42;85.68;;;53.15;;
25905;SDS011;13713;52.552;13.204;2023-02-28T11:37:11;87.85;;;53.13;;
25905;SDS011;13713;52.552;13.204;2023-02-28T11:39:43;87.70;;;53.28;;
25905;SDS011;13713;52.552;13.204;2023-02-28T11:47:31;83.72;;;51.70;;
25905;SDS011;13713;52.552;13.204;2023-02-28T11:58:03;82.43;;;52.05;;
25905;SDS011;13713;52.552;13.204;2023-02-28T12:09:03;92.03;;;60.67;;
25905;SDS011;13713;52.552;13.204;2023-02-28T12:28:53;85.93;;;55.38;;
25905;SDS011;13713;52.552;13.204;2023-02-28T12:31:30;74.20;;;48.45;;
25905;SDS011;13713;52.552;13.204;2023-02-28T12:34:03;72.65;;;47.15;;
25905;SDS011;13713;52.552;13.204;2023-02-28T12:36:40;68.60;;;44.55;;
25905;SDS011;13713;52.552;13.204;2023-02-28T12:39:17;70.72;;;44.08;;
25905;SDS011;13713;52.552;13.204;2023-02-28T12:41:53;78.22;;;47.67;;
25905;SDS011;13713;52.552;13.204;2023-02-28T12:44:26;80.95;;;49.22;;
25905;SDS011;13713;52.552;13.204;2023-02-28T12:46:59;87.38;;;53.55;;
25905;SDS011;13713;52.552;13.204;2023-02-28T12:49:34;86.90;;;54.35;;
25905;SDS011;13713;52.552;13.204;2023-02-28T12:52:08;93.22;;;60.00;;
25905;SDS011;13713;52.552;13.204;2023-02-28T12:57:18;107.18;;;67.40;;
25905;SDS011;13713;52.552;13.204;2023-02-28T12:59:49;108.38;;;68.38;;
25905;SDS011;13713;52.552;13.204;2023-02-28T13:05:27;121.60;;;75.53;;
25905;SDS011;13713;52.552;13.204;2023-02-28T13:10:48;160.27;;;101.63;;
25905;SDS011;13713;52.552;13.204;2023-02-28T13:13:20;167.57;;;113.13;;
25905;SDS011;13713;52.552;13.204;2023-02-28T13:16:05;165.07;;;107.10;;
25905;SDS011;13713;52.552;13.204;2023-02-28T13:18:34;159.95;;;104.45;;
25905;SDS011;13713;52.552;13.204;2023-02-28T13:21:02;162.27;;;105.25;;
25905;SDS011;13713;52.552;13.204;2023-02-28T13:24:13;151.07;;;98.32;;
25905;SDS011;13713;52.552;13.204;2023-02-28T13:34:32;114.95;;;76.03;;
25905;SDS011;13713;52.552;13.204;2023-02-28T13:42:36;157.27;;;100.60;;
25905;SDS011;13713;52.552;13.204;2023-02-28T13:45:25;156.98;;;100.47;;
25905;SDS011;13713;52.552;13.204;2023-02-28T13:48:04;144.55;;;92.75;;
25905;SDS011;13713;52.552;13.204;2023-02-28T13:50:41;143.38;;;92.20;;
25905;SDS011;13713;52.552;13.204;2023-02-28T13:58:24;160.32;;;104.38;;
25905;SDS011;13713;52.552;13.204;2023-02-28T14:06:51;176.45;;;114.50;;
25905;SDS011;13713;52.552;13.204;2023-02-28T14:11:54;170.55;;;109.38;;
25905;SDS011;13713;52.552;13.204;2023-02-28T14:17:03;172.32;;;107.95;;
25905;SDS011;13713;52.552;13.204;2023-02-28T14:19:31;175.30;;;111.43;;
25905;SDS011;13713;52.552;13.204;2023-02-28T14:24:38;177.55;;;109.88;;
25905;SDS011;13713;52.552;13.204;2023-02-28T14:27:44;178.93;;;109.28;;
25905;SDS011;13713;52.552;13.204;2023-02-28T14:38:28;189.90;;;124.20;;
25905;SDS011;13713;52.552;13.204;2023-02-28T14:41:00;200.15;;;128.48;;
25905;SDS011;13713;52.552;13.204;2023-02-28T14:43:54;200.73;;;128.35;;
25905;SDS011;13713;52.552;13.204;2023-02-28T14:46:22;179.32;;;117.03;;
25905;SDS011;13713;52.552;13.204;2023-02-28T14:48:51;176.90;;;117.80;;
25905;SDS011;13713;52.552;13.204;2023-02-28T14:51:18;177.02;;;112.95;;
25905;SDS011;13713;52.552;13.204;2023-02-28T14:53:48;162.77;;;102.60;;
25905;SDS011;13713;52.552;13.204;2023-02-28T14:56:20;156.00;;;101.50;;
25905;SDS011;13713;52.552;13.204;2023-02-28T14:58:52;156.10;;;101.10;;
25905;SDS011;13713;52.552;13.204;2023-02-28T15:03:47;147.70;;;95.40;;
25905;SDS011;13713;52.552;13.204;2023-02-28T15:06:14;140.82;;;92.75;;
25905;SDS011;13713;52.552;13.204;2023-02-28T15:08:45;145.98;;;93.18;;
25905;SDS011;13713;52.552;13.204;2023-02-28T15:13:53;160.25;;;98.88;;
25905;SDS011;13713;52.552;13.204;2023-02-28T15:16:31;145.10;;;95.15;;
25905;SDS011;13713;52.552;13.204;2023-02-28T15:19:22;156.57;;;102.18;;
25905;SDS011;13713;52.552;13.204;2023-02-28T15:21:55;159.50;;;104.97;;
25905;SDS011;13713;52.552;13.204;2023-02-28T15:24:37;154.35;;;98.70;;
25905;SDS011;13713;52.552;13.204;2023-02-28T15:27:09;153.20;;;98.72;;
25905;SDS011;13713;52.552;13.204;2023-02-28T15:29:45;150.25;;;96.93;;
25905;SDS011;13713;52.552;13.204;2023-02-28T15:32:37;144.82;;;96.40;;
25905;SDS011;13713;52.552;13.204;2023-02-28T15:35:25;143.57;;;92.97;;
25905;SDS011;13713;52.552;13.204;2023-02-28T15:37:55;141.38;;;92.40;;
25905;SDS011;13713;52.552;13.204;2023-02-28T15:40:38;144.27;;;93.57;;
25905;SDS011;13713;52.552;13.204;2023-02-28T15:45:48;139.95;;;89.05;;
25905;SDS011;13713;52.552;13.204;2023-02-28T15:51:00;138.23;;;86.57;;
25905;SDS011;13713;52.552;13.204;2023-02-28T15:53:38;127.93;;;85.90;;
25905;SDS011;13713;52.552;13.204;2023-02-28T15:56:24;133.93;;;83.85;;
25905;SDS011;13713;52.552;13.204;2023-02-28T15:58:57;134.95;;;84.97;;
25905;SDS011;13713;52.552;13.204;2023-02-28T16:01:35;130.00;;;84.25;;
25905;SDS011;13713;52.552;13.204;2023-02-28T16:04:06;123.63;;;80.93;;
25905;SDS011;13713;52.552;13.204;2023-02-28T16:09:18;141.52;;;91.35;;
25905;SDS011;13713;52.552;13.204;2023-02-28T16:11:58;139.23;;;91.10;;
25905;SDS011;13713;52.552;13.204;2023-02-28T16:14:29;136.20;;;88.43;;
25905;SDS011;13713;52.552;13.204;2023-02-28T16:17:05;142.88;;;90.25;;
25905;SDS011;13713;52.552;13.204;2023-02-28T16:22:03;145.82;;;87.68;;
25905;SDS011;13713;52.552;13.204;2023-02-28T16:24:28;136.23;;;85.45;;
25905;SDS011;13713;52.552;13.204;2023-02-28T16:26:54;131.48;;;84.53;;
25905;SDS011;13713;52.552;13.204;2023-02-28T16:29:32;132.07;;;85.22;;
25905;SDS011;13713;52.552;13.204;2023-02-28T16:32:01;132.65;;;84.15;;
25905;SDS011;13713;52.552;13.204;2023-02-28T16:34:29;132.45;;;83.40;;
25905;SDS011;13713;52.552;13.204;2023-02-28T16:36:54;133.23;;;84.40;;
25905;SDS011;13713;52.552;13.204;2023-02-28T16:39:20;131.32;;;82.15;;
25905;SDS011;13713;52.552;13.204;2023-02-28T16:41:46;128.23;;;82.05;;
25905;SDS011;13713;52.552;13.204;2023-02-28T16:44:20;134.77;;;83.88;;
25905;SDS011;13713;52.552;13.204;2023-02-28T16:46:55;141.73;;;85.30;;
25905;SDS011;13713;52.552;13.204;2023-02-28T16:49:20;140.82;;;84.10;;
25905;SDS011;13713;52.552;13.204;2023-02-28T16:51:46;151.05;;;89.53;;
25905;SDS011;13713;52.552;13.204;2023-02-28T16:54:12;152.48;;;91.20;;
25905;SDS011;13713;52.552;13.204;2023-02-28T16:56:38;161.63;;;93.38;;
25905;SDS011;13713;52.552;13.204;2023-02-28T16:59:07;162.70;;;94.78;;
25905;SDS011;13713;52.552;13.204;2023-02-28T17:01:34;165.32;;;94.97;;